createdAt,value
2023-05-25T00:00:57.432Z,697.20
2023-05-25T00:01:44.319Z,688.60
2023-05-25T00:02:43.243Z,696.00
2023-05-25T00:03:43.123Z,687.30
2023-05-25T00:04:43.112Z,679.60
2023-05-25T00:05:43.212Z,672.40
2023-05-25T00:06:43.005Z,674.10
2023-05-25T00:07:42.964Z,687.80
2023-05-25T00:08:43.011Z,684.90
2023-05-25T00:09:42.990Z,689.70
2023-05-25T00:10:42.941Z,704.60
2023-05-25T00:11:42.925Z,713.30
2023-05-25T00:12:42.920Z,719.00
2023-05-25T00:13:42.951Z,708.80
2023-05-25T00:14:42.886Z,696.00
2023-05-25T00:15:43.046Z,685.10
2023-05-25T00:16:42.894Z,682.40
2023-05-25T00:17:42.877Z,671.50
2023-05-25T00:18:42.887Z,661.30
2023-05-25T00:19:42.830Z,650.90
2023-05-25T00:20:42.887Z,661.00
2023-05-25T00:21:42.809Z,679.30
2023-05-25T00:22:42.835Z,672.70
2023-05-25T00:23:42.833Z,667.40
2023-05-25T00:24:42.776Z,670.40
2023-05-25T00:25:43.058Z,666.10
2023-05-25T00:26:42.734Z,651.10
2023-05-25T00:27:42.780Z,639.90
2023-05-25T00:28:42.741Z,649.20
2023-05-25T00:29:42.694Z,648.10
2023-05-25T00:30:42.736Z,652.30
2023-05-25T00:31:42.700Z,647.50
2023-05-25T00:32:42.769Z,649.80
2023-05-25T00:33:42.669Z,656.30
2023-05-25T00:34:42.681Z,663.20
2023-05-25T00:35:42.925Z,664.60
2023-05-25T00:36:42.699Z,679.10
2023-05-25T00:37:42.722Z,674.20
2023-05-25T00:38:42.617Z,669.70
2023-05-25T00:39:42.633Z,663.10
2023-05-25T00:40:42.611Z,667.20
2023-05-25T00:41:42.640Z,665.20
2023-05-25T00:42:42.583Z,667.20
2023-05-25T00:43:42.557Z,680.50
2023-05-25T00:44:42.563Z,681.20
2023-05-25T00:45:42.829Z,673.40
2023-05-25T00:46:42.671Z,674.30
2023-05-25T00:47:42.552Z,655.80
2023-05-25T00:48:42.527Z,648.20
2023-05-25T00:49:42.508Z,685.10
2023-05-25T00:50:42.555Z,701.30
2023-05-25T00:51:42.533Z,700.10
2023-05-25T00:52:42.502Z,693.20
2023-05-25T00:53:42.454Z,694.60
2023-05-25T00:54:42.458Z,680.20
2023-05-25T00:55:42.614Z,694.30
2023-05-25T00:56:42.411Z,703.30
2023-05-25T00:57:42.402Z,702.00
2023-05-25T00:58:42.398Z,695.70
2023-05-25T00:59:42.390Z,710.60
2023-05-25T01:00:42.453Z,699.20
2023-05-25T01:01:42.373Z,706.00
2023-05-25T01:02:42.477Z,696.20
2023-05-25T01:03:42.402Z,708.40
2023-05-25T01:04:42.385Z,689.10
2023-05-25T01:05:42.576Z,682.50
2023-05-25T01:06:42.335Z,688.10
2023-05-25T01:07:42.307Z,692.90
2023-05-25T01:08:42.305Z,698.50
2023-05-25T01:09:42.329Z,692.10
2023-05-25T01:10:42.269Z,676.90
2023-05-25T01:11:42.249Z,687.70
2023-05-25T01:12:42.246Z,665.90
2023-05-25T01:13:42.240Z,671.80
2023-05-25T01:14:42.271Z,673.20
2023-05-25T01:15:42.426Z,671.90
2023-05-25T01:16:42.221Z,670.60
2023-05-25T01:17:42.199Z,675.80
2023-05-25T01:18:42.266Z,674.20
2023-05-25T01:19:42.215Z,678.70
2023-05-25T01:20:42.198Z,682.80
2023-05-25T01:21:42.270Z,677.80
2023-05-25T01:22:42.145Z,680.90
2023-05-25T01:23:42.144Z,682.60
2023-05-25T01:24:42.085Z,687.70
2023-05-25T01:25:42.297Z,675.70
2023-05-25T01:26:42.112Z,677.00
2023-05-25T01:27:42.115Z,682.70
2023-05-25T01:28:42.115Z,681.60
2023-05-25T01:29:42.065Z,673.60
2023-05-25T01:30:42.045Z,673.80
2023-05-25T01:31:42.064Z,670.00
2023-05-25T01:32:42.103Z,674.30
2023-05-25T01:33:42.004Z,671.10
2023-05-25T01:34:42.026Z,680.80
2023-05-25T01:35:42.224Z,684.90
2023-05-25T01:36:41.978Z,668.30
2023-05-25T01:37:42.027Z,667.20
2023-05-25T01:38:41.964Z,667.50
2023-05-25T01:39:41.934Z,668.10
2023-05-25T01:40:41.922Z,659.30
2023-05-25T01:41:41.907Z,669.20
2023-05-25T01:42:41.936Z,672.70
2023-05-25T01:43:41.899Z,663.00
2023-05-25T01:44:41.887Z,666.40
2023-05-25T01:45:42.048Z,673.10
2023-05-25T01:46:41.877Z,662.20
2023-05-25T01:47:41.907Z,668.00
2023-05-25T01:48:41.822Z,667.80
2023-05-25T01:49:41.806Z,650.10
2023-05-25T01:50:41.813Z,666.50
2023-05-25T01:51:41.889Z,690.30
2023-05-25T01:52:41.824Z,679.60
2023-05-25T01:53:41.757Z,686.20
2023-05-25T01:54:41.771Z,674.60
2023-05-25T01:55:41.842Z,658.00
2023-05-25T01:56:41.803Z,655.20
2023-05-25T01:57:41.731Z,647.40
2023-05-25T01:58:41.714Z,652.40
2023-05-25T01:59:41.688Z,648.50
2023-05-25T02:00:41.729Z,656.20
2023-05-25T02:01:41.769Z,655.90
2023-05-25T02:02:41.703Z,671.90
2023-05-25T02:03:41.698Z,665.40
2023-05-25T02:04:41.750Z,675.70
2023-05-25T02:05:41.962Z,696.70
2023-05-25T02:06:41.664Z,699.10
2023-05-25T02:07:41.621Z,685.80
2023-05-25T02:08:41.609Z,682.00
2023-05-25T02:09:41.584Z,699.90
2023-05-25T02:10:41.624Z,700.10
2023-05-25T02:11:41.572Z,711.90
2023-05-25T02:12:41.549Z,703.00
2023-05-25T02:13:41.563Z,708.50
2023-05-25T02:14:41.536Z,709.50
2023-05-25T02:15:41.750Z,702.20
2023-05-25T02:16:41.512Z,722.40
2023-05-25T02:17:41.569Z,721.00
2023-05-25T02:18:41.500Z,718.90
2023-05-25T02:19:41.536Z,719.30
2023-05-25T02:20:41.531Z,726.00
2023-05-25T02:21:41.453Z,720.90
2023-05-25T02:22:41.440Z,734.00
2023-05-25T02:23:41.434Z,727.90
2023-05-25T02:24:41.470Z,727.30
2023-05-25T02:25:41.504Z,736.70
2023-05-25T02:26:41.412Z,730.10
2023-05-25T02:27:41.382Z,739.90
2023-05-25T02:28:41.371Z,748.70
2023-05-25T02:29:41.415Z,750.30
2023-05-25T02:30:41.375Z,747.80
2023-05-25T02:31:41.377Z,752.30
2023-05-25T02:32:41.354Z,755.80
2023-05-25T02:33:41.339Z,745.80
2023-05-25T02:34:41.371Z,750.00
2023-05-25T02:35:41.437Z,744.90
2023-05-25T02:36:41.287Z,748.30
2023-05-25T02:37:41.283Z,759.30
2023-05-25T02:38:41.304Z,755.80
2023-05-25T02:39:41.324Z,765.10
2023-05-25T02:40:41.249Z,765.30
2023-05-25T02:41:41.236Z,766.00
2023-05-25T02:42:41.264Z,778.70
2023-05-25T02:43:41.281Z,778.70
2023-05-25T02:44:41.199Z,790.40
2023-05-25T02:45:41.312Z,801.70
2023-05-25T02:46:41.245Z,796.60
2023-05-25T02:47:41.208Z,787.90
2023-05-25T02:48:41.212Z,785.80
2023-05-25T02:49:41.134Z,782.80
2023-05-25T02:50:41.113Z,779.90
2023-05-25T02:51:41.112Z,778.80
2023-05-25T02:52:41.145Z,772.40
2023-05-25T02:53:41.156Z,765.10
2023-05-25T02:54:41.104Z,759.80
2023-05-25T02:55:41.094Z,759.10
2023-05-25T02:56:41.074Z,765.70
2023-05-25T02:57:41.107Z,774.20
2023-05-25T02:58:41.055Z,783.90
2023-05-25T02:59:41.065Z,777.40
2023-05-25T03:00:41.032Z,773.00
2023-05-25T03:01:41.025Z,768.40
2023-05-25T03:02:41.076Z,770.40
2023-05-25T03:03:41.046Z,776.90
2023-05-25T03:04:40.976Z,774.70
2023-05-25T03:05:41.004Z,771.70
2023-05-25T03:06:40.974Z,782.40
2023-05-25T03:07:40.997Z,787.80
2023-05-25T03:08:40.922Z,772.70
2023-05-25T03:09:40.925Z,781.10
2023-05-25T03:10:40.900Z,767.80
2023-05-25T03:11:40.960Z,768.90
2023-05-25T03:12:40.954Z,761.70
2023-05-25T03:13:40.879Z,755.10
2023-05-25T03:14:40.866Z,753.80
2023-05-25T03:15:40.865Z,760.00
2023-05-25T03:16:40.959Z,765.30
2023-05-25T03:17:40.872Z,757.90
2023-05-25T03:18:40.795Z,768.80
2023-05-25T03:19:40.841Z,754.50
2023-05-25T03:20:40.828Z,736.10
2023-05-25T03:21:40.841Z,737.40
2023-05-25T03:22:40.772Z,733.90
2023-05-25T03:23:40.778Z,713.00
2023-05-25T03:24:40.747Z,731.80
2023-05-25T03:25:40.739Z,669.20
2023-05-25T03:26:40.762Z,657.00
2023-05-25T03:27:40.703Z,659.90
2023-05-25T03:28:40.708Z,655.90
2023-05-25T03:29:40.700Z,622.30
2023-05-25T03:30:40.728Z,619.50
2023-05-25T03:31:40.821Z,610.90
2023-05-25T03:32:40.673Z,613.10
2023-05-25T03:33:40.662Z,627.80
2023-05-25T03:34:40.648Z,626.00
2023-05-25T03:35:40.678Z,632.20
2023-05-25T03:36:40.608Z,647.00
2023-05-25T03:37:40.630Z,661.10
2023-05-25T03:38:40.602Z,625.20
2023-05-25T03:39:40.636Z,488.20
2023-05-25T03:40:40.624Z,489.20
2023-05-25T03:41:40.567Z,491.90
2023-05-25T03:42:40.562Z,488.30
2023-05-25T03:43:40.541Z,494.50
2023-05-25T03:44:41.353Z,491.70
2023-05-25T03:45:40.521Z,489.80
2023-05-25T03:46:40.561Z,488.20
2023-05-25T03:47:40.504Z,489.90
2023-05-25T03:48:40.471Z,500.60
2023-05-25T03:49:40.519Z,499.10
2023-05-25T03:50:40.456Z,518.40
2023-05-25T03:51:40.465Z,539.00
2023-05-25T03:52:40.457Z,557.70
2023-05-25T03:53:40.437Z,565.30
2023-05-25T03:54:40.482Z,544.70
2023-05-25T03:55:40.423Z,562.90
2023-05-25T03:56:40.403Z,551.60
2023-05-25T03:57:40.382Z,569.80
2023-05-25T03:58:40.403Z,542.10
2023-05-25T03:59:40.418Z,533.50
2023-05-25T04:00:40.343Z,523.90
2023-05-25T04:01:40.355Z,479.40
2023-05-25T04:02:40.429Z,491.60
2023-05-25T04:03:40.488Z,504.40
2023-05-25T04:04:40.372Z,541.70
2023-05-25T04:05:40.331Z,521.20
2023-05-25T04:06:40.287Z,209.20
2023-05-25T04:07:40.261Z,611.20
2023-05-25T04:08:40.318Z,516.50
2023-05-25T04:09:40.264Z,213.60
2023-05-25T04:10:40.272Z,587.10
2023-05-25T04:11:40.233Z,580.00
2023-05-25T04:12:40.248Z,560.30
2023-05-25T04:13:40.262Z,221.60
2023-05-25T04:14:40.200Z,325.50
2023-05-25T04:15:40.158Z,582.10
2023-05-25T04:16:40.178Z,528.40
2023-05-25T04:17:40.206Z,521.40
2023-05-25T04:18:40.160Z,215.60
2023-05-25T04:19:40.141Z,427.80
2023-05-25T04:20:40.156Z,593.40
2023-05-25T04:21:40.120Z,567.40
2023-05-25T04:22:40.152Z,235.60
2023-05-25T04:23:40.093Z,377.40
2023-05-25T04:24:40.073Z,422.90
2023-05-25T04:25:40.078Z,459.30
2023-05-25T04:26:40.110Z,287.70
2023-05-25T04:27:40.095Z,324.10
2023-05-25T04:28:40.026Z,468.80
2023-05-25T04:29:40.035Z,498.50
2023-05-25T04:30:40.009Z,259.20
2023-05-25T04:31:40.084Z,290.30
2023-05-25T04:32:40.079Z,195.10
2023-05-25T04:33:39.974Z,331.20
2023-05-25T04:34:39.947Z,549.50
2023-05-25T04:35:40.000Z,200.20
2023-05-25T04:36:39.988Z,290.20
2023-05-25T04:37:39.954Z,553.50
2023-05-25T04:38:39.919Z,483.60
2023-05-25T04:39:39.922Z,479.20
2023-05-25T04:40:39.944Z,468.20
2023-05-25T04:41:39.884Z,209.00
2023-05-25T04:42:39.910Z,214.90
2023-05-25T04:43:46.550Z,253.90
2023-05-25T04:44:40.871Z,250.30
2023-05-25T04:45:39.922Z,507.40
2023-05-25T04:46:39.830Z,261.20
2023-05-25T04:47:39.859Z,281.50
2023-05-25T04:48:39.787Z,279.00
2023-05-25T04:49:39.832Z,254.20
2023-05-25T04:50:39.827Z,270.90
2023-05-25T04:51:39.791Z,276.40
2023-05-25T04:52:39.751Z,268.80
2023-05-25T04:53:39.745Z,236.20
2023-05-25T04:54:39.775Z,227.20
2023-05-25T04:55:39.746Z,274.20
2023-05-25T04:56:39.703Z,306.70
2023-05-25T04:57:39.698Z,273.20
2023-05-25T04:58:39.694Z,217.60
2023-05-25T04:59:39.744Z,199.40
2023-05-25T05:00:39.672Z,182.60
2023-05-25T05:01:39.692Z,233.00
2023-05-25T05:02:39.696Z,186.30
2023-05-25T05:03:39.720Z,197.90
2023-05-25T05:04:39.669Z,197.90
2023-05-25T05:05:39.612Z,192.10
2023-05-25T05:06:39.628Z,195.80
2023-05-25T05:07:39.593Z,175.20
2023-05-25T05:08:39.642Z,178.70
2023-05-25T05:09:39.597Z,170.50
2023-05-25T05:10:39.529Z,191.30
2023-05-25T05:11:39.529Z,209.20
2023-05-25T05:12:39.513Z,280.20
2023-05-25T05:13:39.553Z,241.50
2023-05-25T05:14:39.519Z,233.10
2023-05-25T05:15:39.488Z,214.70
2023-05-25T05:16:39.531Z,201.10
2023-05-25T05:17:39.649Z,189.60
2023-05-25T05:18:39.520Z,191.30
2023-05-25T05:19:39.466Z,194.00
2023-05-25T05:20:39.506Z,155.00
2023-05-25T05:21:39.426Z,176.30
2023-05-25T05:22:39.523Z,211.60
2023-05-25T05:23:39.454Z,240.30
2023-05-25T05:24:39.407Z,258.50
2023-05-25T05:25:39.390Z,239.50
2023-05-25T05:26:55.600Z,220.90
2023-05-25T05:27:40.411Z,181.20
2023-05-25T05:28:39.353Z,166.90
2023-05-25T05:29:39.348Z,216.80
2023-05-25T05:30:39.335Z,177.30
2023-05-25T05:31:39.446Z,343.80
2023-05-25T05:32:39.363Z,281.60
2023-05-25T05:33:39.404Z,274.50
2023-05-25T05:34:39.271Z,297.90
2023-05-25T05:35:39.313Z,284.50
2023-05-25T05:36:53.082Z,242.00
2023-05-25T05:37:40.251Z,301.50
2023-05-25T05:38:40.034Z,305.40
2023-05-25T05:39:39.212Z,280.50
2023-05-25T05:40:39.210Z,193.00
2023-05-25T05:41:39.236Z,71.90
2023-05-25T05:42:39.180Z,67.00
2023-05-25T05:43:39.171Z,69.40
2023-05-25T05:44:39.167Z,90.30
2023-05-25T05:45:39.207Z,62.80
2023-05-25T05:46:39.239Z,64.70
2023-05-25T05:47:39.175Z,59.90
2023-05-25T05:48:39.108Z,57.00
2023-05-25T05:49:39.119Z,62.90
2023-05-25T05:50:41.748Z,94.10
2023-05-25T05:51:39.071Z,99.70
2023-05-25T05:52:39.076Z,136.20
2023-05-25T05:53:39.081Z,128.60
2023-05-25T05:54:39.059Z,155.00
2023-05-25T05:55:39.110Z,141.30
2023-05-25T05:56:39.041Z,139.00
2023-05-25T05:57:39.019Z,152.40
2023-05-25T05:58:39.018Z,134.50
2023-05-25T05:59:39.063Z,148.30
2023-05-25T06:00:39.050Z,72.00
2023-05-25T06:01:38.986Z,66.20
2023-05-25T06:02:41.386Z,68.90
2023-05-25T06:03:38.960Z,69.40
2023-05-25T06:04:39.031Z,81.90
2023-05-25T06:05:38.992Z,73.40
2023-05-25T06:06:38.907Z,85.20
2023-05-25T06:07:38.921Z,85.20
2023-05-25T06:08:38.878Z,114.30
2023-05-25T06:09:38.919Z,131.50
2023-05-25T06:10:38.891Z,132.80
2023-05-25T06:11:38.881Z,136.20
2023-05-25T06:12:38.863Z,129.90
2023-05-25T06:13:38.870Z,107.80
2023-05-25T06:14:38.861Z,94.20
2023-05-25T06:15:38.817Z,104.80
2023-05-25T06:16:38.869Z,91.80
2023-05-25T06:17:38.831Z,76.80
2023-05-25T06:18:38.843Z,68.90
2023-05-25T06:19:38.807Z,57.60
2023-05-25T06:20:38.792Z,66.50
2023-05-25T06:21:38.755Z,51.50
2023-05-25T06:22:38.742Z,45.10
2023-05-25T06:23:38.758Z,54.20
2023-05-25T06:24:38.711Z,38.50
2023-05-25T06:25:38.732Z,49.80
2023-05-25T06:26:38.698Z,35.40
2023-05-25T06:27:38.740Z,32.90
2023-05-25T06:28:38.717Z,43.90
2023-05-25T06:29:38.659Z,68.70
2023-05-25T06:30:38.689Z,56.20
2023-05-25T06:31:38.667Z,37.60
2023-05-25T06:32:38.717Z,30.90
2023-05-25T06:33:38.651Z,33.50
2023-05-25T06:34:38.605Z,32.30
2023-05-25T06:35:38.575Z,32.70
2023-05-25T06:36:38.573Z,36.00
2023-05-25T06:37:38.642Z,43.90
2023-05-25T06:38:38.582Z,34.70
2023-05-25T06:39:38.562Z,34.10
2023-05-25T06:40:38.521Z,37.10
2023-05-25T06:41:38.596Z,40.30
2023-05-25T06:42:38.561Z,40.50
2023-05-25T06:43:38.514Z,41.90
2023-05-25T06:44:38.560Z,47.60
2023-05-25T06:45:38.484Z,52.10
2023-05-25T06:46:38.590Z,45.90
2023-05-25T06:47:39.128Z,44.50
2023-05-25T06:48:38.452Z,35.20
2023-05-25T06:49:38.450Z,24.70
2023-05-25T06:50:38.457Z,41.30
2023-05-25T06:51:38.469Z,25.20
2023-05-25T06:52:38.391Z,37.30
2023-05-25T06:53:38.389Z,25.30
2023-05-25T06:54:38.712Z,25.50
2023-05-25T06:55:38.419Z,24.30
2023-05-25T06:56:38.413Z,22.70
2023-05-25T06:57:38.352Z,24.40
2023-05-25T06:58:38.333Z,24.10
2023-05-25T06:59:38.351Z,23.70
2023-05-25T07:00:38.388Z,31.70
2023-05-25T07:01:38.364Z,26.40
2023-05-25T07:02:38.326Z,25.90
2023-05-25T07:03:38.275Z,26.10
2023-05-25T07:04:38.310Z,22.10
2023-05-25T07:05:38.308Z,23.70
2023-05-25T07:06:38.254Z,21.30
2023-05-25T07:07:38.222Z,20.50
2023-05-25T07:08:38.222Z,20.40
2023-05-25T07:09:38.257Z,21.60
2023-05-25T07:10:38.248Z,18.30
2023-05-25T07:11:38.194Z,22.40
2023-05-25T07:12:38.169Z,23.40
2023-05-25T07:13:38.145Z,25.90
2023-05-25T07:14:38.204Z,23.30
2023-05-25T07:15:38.146Z,24.00
2023-05-25T07:16:38.215Z,29.50
2023-05-25T07:17:38.153Z,23.00
2023-05-25T07:18:38.126Z,22.20
2023-05-25T07:19:38.149Z,23.20
2023-05-25T07:20:38.245Z,23.40
2023-05-25T07:21:38.090Z,22.90
2023-05-25T07:22:38.065Z,22.30
2023-05-25T07:23:38.113Z,21.90
2023-05-25T07:24:38.116Z,25.30
2023-05-25T07:25:38.090Z,23.00
2023-05-25T07:26:38.048Z,22.90
2023-05-25T07:27:38.039Z,26.00
2023-05-25T07:28:38.065Z,24.40
2023-05-25T07:29:37.999Z,24.40
2023-05-25T07:30:37.986Z,24.30
2023-05-25T07:31:37.985Z,24.30
2023-05-25T07:32:38.002Z,24.90
2023-05-25T07:33:38.007Z,26.30
2023-05-25T07:34:37.980Z,26.30
2023-05-25T07:35:37.937Z,27.50
2023-05-25T07:36:37.927Z,28.10
2023-05-25T07:37:37.979Z,27.80
2023-05-25T07:38:37.958Z,26.90
2023-05-25T07:39:37.879Z,25.50
2023-05-25T07:40:37.900Z,27.30
2023-05-25T07:41:37.881Z,27.90
2023-05-25T07:42:37.949Z,27.50
2023-05-25T07:43:37.837Z,25.60
2023-05-25T07:44:37.829Z,27.10
2023-05-25T07:45:37.834Z,27.20
2023-05-25T07:46:37.838Z,28.10
2023-05-25T07:47:37.979Z,28.70
2023-05-25T07:48:37.795Z,20.60
2023-05-25T07:49:37.793Z,20.60
2023-05-25T07:50:37.768Z,20.70
2023-05-25T07:51:37.828Z,23.60
2023-05-25T07:52:37.796Z,20.20
2023-05-25T07:53:37.828Z,21.20
2023-05-25T07:54:37.798Z,25.80
2023-05-25T07:55:37.710Z,30.90
2023-05-25T07:56:37.739Z,29.80
2023-05-25T07:57:37.715Z,23.70
2023-05-25T07:58:37.653Z,20.60
2023-05-25T07:59:37.627Z,20.20
2023-05-25T08:00:37.684Z,21.30
2023-05-25T08:01:37.704Z,21.30
2023-05-25T08:02:37.854Z,21.90
2023-05-25T08:03:48.923Z,22.90
2023-05-25T08:04:38.788Z,23.80
2023-05-25T08:05:37.685Z,23.40
2023-05-25T08:06:37.638Z,25.70
2023-05-25T08:07:38.283Z,26.90
2023-05-25T08:08:37.551Z,25.70
2023-05-25T08:09:37.583Z,22.80
2023-05-25T08:10:37.658Z,20.90
2023-05-25T08:11:37.561Z,26.10
2023-05-25T08:12:47.058Z,24.80
2023-05-25T08:13:38.539Z,25.60
2023-05-25T08:14:37.528Z,24.20
2023-05-25T08:15:37.516Z,23.70
2023-05-25T08:16:37.492Z,24.90
2023-05-25T08:17:37.499Z,24.80
2023-05-25T08:18:37.478Z,25.20
2023-05-25T08:19:37.487Z,26.20
2023-05-25T08:20:37.535Z,25.30
2023-05-25T08:21:37.431Z,24.10
2023-05-25T08:22:37.411Z,24.60
2023-05-25T08:23:37.401Z,23.80
2023-05-25T08:24:37.479Z,24.30
2023-05-25T08:25:37.390Z,24.20
2023-05-25T08:26:53.141Z,24.00
2023-05-25T08:27:38.354Z,23.80
2023-05-25T08:28:37.334Z,22.70
2023-05-25T08:29:37.358Z,23.90
2023-05-25T08:30:37.332Z,23.50
2023-05-25T08:31:37.423Z,24.60
2023-05-25T08:32:37.325Z,21.30
2023-05-25T08:33:37.341Z,21.20
2023-05-25T08:34:37.305Z,22.10
2023-05-25T08:35:37.248Z,23.20
2023-05-25T08:36:37.254Z,24.00
2023-05-25T08:37:37.241Z,25.60
2023-05-25T08:38:37.278Z,23.20
2023-05-25T08:39:37.239Z,21.40
2023-05-25T08:40:37.221Z,24.90
2023-05-25T08:41:37.202Z,25.30
2023-05-25T08:42:37.198Z,23.30
2023-05-25T08:43:37.214Z,24.40
2023-05-25T08:44:37.166Z,22.90
2023-05-25T08:45:40.564Z,21.10
2023-05-25T08:46:38.137Z,19.90
2023-05-25T08:47:37.182Z,23.40
2023-05-25T08:48:41.507Z,26.30
2023-05-25T08:49:38.147Z,34.70
2023-05-25T08:50:37.116Z,24.00
2023-05-25T08:51:37.123Z,25.70
2023-05-25T08:52:37.144Z,23.90
2023-05-25T08:53:37.066Z,28.90
2023-05-25T08:54:37.025Z,31.50
2023-05-25T08:55:37.036Z,27.70
2023-05-25T08:56:37.188Z,24.80
2023-05-25T08:57:37.052Z,24.50
2023-05-25T08:58:37.012Z,27.90
2023-05-25T08:59:37.021Z,30.90
2023-05-25T09:00:36.988Z,27.60
2023-05-25T09:01:37.048Z,34.30
2023-05-25T09:02:37.087Z,27.00
2023-05-25T09:03:37.070Z,27.60
2023-05-25T09:04:36.963Z,24.90
2023-05-25T09:05:38.182Z,23.70
2023-05-25T09:06:37.000Z,23.90
2023-05-25T09:07:36.952Z,26.00
2023-05-25T09:08:36.899Z,27.90
2023-05-25T09:09:36.880Z,26.10
2023-05-25T09:10:36.928Z,24.20
2023-05-25T09:11:40.400Z,20.40
2023-05-25T09:12:36.867Z,20.80
2023-05-25T09:13:36.838Z,26.90
2023-05-25T09:14:36.837Z,25.60
2023-05-25T09:15:36.877Z,23.70
2023-05-25T09:16:36.878Z,23.80
2023-05-25T09:17:38.290Z,21.70
2023-05-25T09:18:36.843Z,26.20
2023-05-25T09:19:36.771Z,35.80
2023-05-25T09:20:36.950Z,32.30
2023-05-25T09:21:36.781Z,24.90
2023-05-25T09:22:36.752Z,24.00
2023-05-25T09:23:36.715Z,24.60
2023-05-25T09:24:36.713Z,27.30
2023-05-25T09:25:36.746Z,31.70
2023-05-25T09:26:36.732Z,24.40
2023-05-25T09:27:36.737Z,31.80
2023-05-25T09:28:36.703Z,24.40
2023-05-25T09:29:36.740Z,21.40
2023-05-25T09:30:36.764Z,27.40
2023-05-25T09:31:36.662Z,27.80
2023-05-25T09:32:36.671Z,24.40
2023-05-25T09:33:37.235Z,27.20
2023-05-25T09:34:36.694Z,25.90
2023-05-25T09:35:36.623Z,23.80
2023-05-25T09:36:36.678Z,18.70
2023-05-25T09:37:36.709Z,24.50
2023-05-25T09:38:36.755Z,23.40
2023-05-25T09:39:36.825Z,30.60
2023-05-25T09:40:36.589Z,32.80
2023-05-25T09:41:36.557Z,33.10
2023-05-25T09:42:36.576Z,31.00
2023-05-25T09:43:44.508Z,27.40
2023-05-25T09:44:37.578Z,30.40
2023-05-25T09:45:38.187Z,33.20
2023-05-25T09:46:36.569Z,27.70
2023-05-25T09:47:36.587Z,27.50
2023-05-25T09:48:36.516Z,31.90
2023-05-25T09:49:36.451Z,23.20
2023-05-25T09:50:36.431Z,28.90
2023-05-25T09:51:36.425Z,33.20
2023-05-25T09:52:36.435Z,26.50
2023-05-25T09:53:36.474Z,28.50
2023-05-25T09:54:36.417Z,41.20
2023-05-25T09:55:51.336Z,31.00
2023-05-25T09:56:37.395Z,29.60
2023-05-25T09:57:36.400Z,31.80
2023-05-25T09:58:36.471Z,29.00
2023-05-25T09:59:36.359Z,27.00
2023-05-25T10:00:36.348Z,23.80
2023-05-25T10:01:36.376Z,20.80
2023-05-25T10:02:36.411Z,34.90
2023-05-25T10:03:36.321Z,35.30
2023-05-25T10:04:36.347Z,38.80
2023-05-25T10:05:36.261Z,38.10
2023-05-25T10:06:36.292Z,46.00
2023-05-25T10:07:36.293Z,53.60
2023-05-25T10:08:36.258Z,66.40
2023-05-25T10:09:36.236Z,44.70
2023-05-25T10:10:36.252Z,31.90
2023-05-25T10:11:36.319Z,21.80
2023-05-25T10:12:36.285Z,35.10
2023-05-25T10:13:36.193Z,23.10
2023-05-25T10:14:36.214Z,24.70
2023-05-25T10:15:36.204Z,28.50
2023-05-25T10:16:36.309Z,27.40
2023-05-25T10:17:36.175Z,22.00
2023-05-25T10:18:36.148Z,21.00
2023-05-25T10:19:36.156Z,21.00
2023-05-25T10:20:36.170Z,23.10
2023-05-25T10:21:36.171Z,25.10
2023-05-25T10:22:36.109Z,24.80
2023-05-25T10:23:36.096Z,26.00
2023-05-25T10:24:36.110Z,28.10
2023-05-25T10:25:36.144Z,30.60
2023-05-25T10:26:36.122Z,33.20
2023-05-25T10:27:36.088Z,30.20
2023-05-25T10:28:36.044Z,30.20
2023-05-25T10:29:36.030Z,25.70
2023-05-25T10:30:36.084Z,22.50
2023-05-25T10:31:36.014Z,29.20
2023-05-25T10:32:36.029Z,31.60
2023-05-25T10:33:36.020Z,25.80
2023-05-25T10:34:35.984Z,28.20
2023-05-25T10:35:42.483Z,30.60
2023-05-25T10:36:36.979Z,26.80
2023-05-25T10:37:35.932Z,25.60
2023-05-25T10:38:35.920Z,27.40
2023-05-25T10:39:35.962Z,21.40
2023-05-25T10:40:35.949Z,22.30
2023-05-25T10:41:35.902Z,24.00
2023-05-25T10:42:35.909Z,25.40
2023-05-25T10:43:35.872Z,27.60
2023-05-25T10:44:35.898Z,29.60
2023-05-25T10:45:35.838Z,27.50
2023-05-25T10:46:35.877Z,22.00
2023-05-25T10:47:35.847Z,26.00
2023-05-25T10:48:35.823Z,29.20
2023-05-25T10:49:35.870Z,20.90
2023-05-25T10:50:35.819Z,21.80
2023-05-25T10:51:35.808Z,21.20
2023-05-25T10:52:35.792Z,21.00
2023-05-25T10:53:35.829Z,21.00
2023-05-25T10:54:35.812Z,19.80
2023-05-25T10:55:35.798Z,21.20
2023-05-25T10:56:35.836Z,25.70
2023-05-25T10:57:35.774Z,29.20
2023-05-25T10:58:35.791Z,30.70
2023-05-25T10:59:35.756Z,32.10
2023-05-25T11:00:35.794Z,32.50
2023-05-25T11:01:35.769Z,36.40
2023-05-25T11:02:35.682Z,38.60
2023-05-25T11:03:35.731Z,28.00
2023-05-25T11:04:35.713Z,22.90
2023-05-25T11:05:35.669Z,21.40
2023-05-25T11:06:35.612Z,18.70
2023-05-25T11:07:35.680Z,21.40
2023-05-25T11:08:35.682Z,22.30
2023-05-25T11:09:35.631Z,24.20
2023-05-25T11:10:35.644Z,25.20
2023-05-25T11:11:35.581Z,24.10
2023-05-25T11:12:35.667Z,25.20
2023-05-25T11:13:37.754Z,25.50
2023-05-25T11:14:35.560Z,26.30
2023-05-25T11:15:35.563Z,27.40
2023-05-25T11:16:35.594Z,28.60
2023-05-25T11:17:36.153Z,28.80
2023-05-25T11:18:35.537Z,29.10
2023-05-25T11:19:35.532Z,29.40
2023-05-25T11:20:35.551Z,29.90
2023-05-25T11:21:35.501Z,30.30
2023-05-25T11:22:35.530Z,31.10
2023-05-25T11:23:35.467Z,33.00
2023-05-25T11:24:35.509Z,34.40
2023-05-25T11:25:36.965Z,37.70
2023-05-25T11:26:35.838Z,39.40
2023-05-25T11:27:35.559Z,42.00
2023-05-25T11:28:35.740Z,42.20
2023-05-25T11:29:35.977Z,43.50
2023-05-25T11:30:35.762Z,43.90
2023-05-25T11:31:40.590Z,44.40
2023-05-25T11:32:36.734Z,41.70
2023-05-25T11:33:35.540Z,42.70
2023-05-25T11:34:36.625Z,42.80
2023-05-25T11:35:37.755Z,41.90
2023-05-25T11:36:36.777Z,45.20
2023-05-25T11:37:36.130Z,43.20
2023-05-25T11:38:35.507Z,41.50
2023-05-25T11:39:37.036Z,43.40
2023-05-25T11:40:39.331Z,42.60
2023-05-25T11:41:35.537Z,41.90
2023-05-25T11:42:36.058Z,42.90
2023-05-25T11:43:38.574Z,42.00
2023-05-25T11:44:37.577Z,43.60
2023-05-25T11:45:35.549Z,42.60
2023-05-25T11:46:37.329Z,42.50
2023-05-25T11:47:35.989Z,38.60
2023-05-25T11:48:35.411Z,36.30
2023-05-25T11:49:36.357Z,37.50
2023-05-25T11:50:49.635Z,36.80
2023-05-25T11:51:35.350Z,36.40
2023-05-25T11:52:36.815Z,36.60
2023-05-25T11:53:35.432Z,36.90
2023-05-25T11:54:36.316Z,32.90
2023-05-25T11:55:35.412Z,29.30
2023-05-25T11:56:36.193Z,26.30
2023-05-25T11:57:35.318Z,27.90
2023-05-25T11:58:36.638Z,28.60
2023-05-25T11:59:36.654Z,32.50
2023-05-25T12:00:38.718Z,30.90
2023-05-25T12:01:35.551Z,30.60
2023-05-25T12:02:35.425Z,25.90
2023-05-25T12:03:35.606Z,28.00
2023-05-25T12:04:35.537Z,27.40
2023-05-25T12:05:35.490Z,26.50
2023-05-25T12:06:35.755Z,26.80
2023-05-25T12:07:35.439Z,27.60
2023-05-25T12:08:35.519Z,26.30
2023-05-25T12:09:35.523Z,25.50
2023-05-25T12:10:35.450Z,24.60
2023-05-25T12:11:35.220Z,24.60
2023-05-25T12:12:35.263Z,24.40
2023-05-25T12:13:36.425Z,25.40
2023-05-25T12:14:35.400Z,26.40
2023-05-25T12:15:36.438Z,25.20
2023-05-25T12:16:36.423Z,25.10
2023-05-25T12:17:35.282Z,26.60
2023-05-25T12:18:35.540Z,27.30
2023-05-25T12:19:36.311Z,26.40
2023-05-25T12:20:35.984Z,24.20
2023-05-25T12:21:37.089Z,22.70
2023-05-25T12:22:34.931Z,18.10
2023-05-25T12:23:35.576Z,18.10
2023-05-25T12:24:34.837Z,24.10
2023-05-25T12:25:46.516Z,27.50
2023-05-25T12:26:35.849Z,26.00
2023-05-25T12:27:34.870Z,27.70
2023-05-25T12:28:34.814Z,29.70
2023-05-25T12:29:34.832Z,30.00
2023-05-25T12:30:35.734Z,26.20
2023-05-25T12:31:34.794Z,26.00
2023-05-25T12:32:34.859Z,24.40
2023-05-25T12:33:34.785Z,22.40
2023-05-25T12:34:34.740Z,25.40
2023-05-25T12:35:34.730Z,25.60
2023-05-25T12:36:34.786Z,23.90
2023-05-25T12:37:34.791Z,22.30
2023-05-25T12:38:34.709Z,27.90
2023-05-25T12:39:34.750Z,27.60
2023-05-25T12:40:34.699Z,24.90
2023-05-25T12:41:34.740Z,24.00